Hood, Virginia
Current Conditions -  °F | °C
As of 11:53 PM on Friday 21 Nov 2014 (Local Time) from KCHO Reporting Station
Clear Clear  
Wind Chill: 23°   Ceiling: Unl
Heat Index: 23°   Visibility: 10mi
Dew Point: 11°   Wind: 3mph
Humidity: 60%   Direction: 260°W
Pressure: 30.54"   Gusts: NA
Location:  38.35°N, 78.38°W
Report Text: KCHO 220453Z AUTO 26003KT 10SM CLR M05/M12 A3054 RMK AO2 SLP347 T10501117 400441050
Loading
Personal Weather Stations






























Interactive Weather Map New forecast layout! Learn more

10-Day Weather Forecast

Advertisements
Track Severe Weather on mobile